sensor_id;sensor_type;location;lat;lon;timestamp;P1;durP1;ratioP1;P2;durP2;ratioP2
11986;SDS011;6053;51.382;6.768;2023-07-30T00:02:16;3.10;;;1.10;;
11986;SDS011;6053;51.382;6.768;2023-07-30T00:04:46;1.23;;;0.98;;
11986;SDS011;6053;51.382;6.768;2023-07-30T00:07:15;3.17;;;1.20;;
11986;SDS011;6053;51.382;6.768;2023-07-30T00:09:50;1.05;;;0.90;;
11986;SDS011;6053;51.382;6.768;2023-07-30T00:12:19;1.27;;;0.90;;
11986;SDS011;6053;51.382;6.768;2023-07-30T00:14:47;2.63;;;0.98;;
11986;SDS011;6053;51.382;6.768;2023-07-30T00:17:16;0.70;;;0.65;;
11986;SDS011;6053;51.382;6.768;2023-07-30T00:19:48;1.02;;;0.68;;
11986;SDS011;6053;51.382;6.768;2023-07-30T00:22:17;2.45;;;0.82;;
11986;SDS011;6053;51.382;6.768;2023-07-30T00:24:49;1.30;;;0.77;;
11986;SDS011;6053;51.382;6.768;2023-07-30T00:27:20;2.22;;;0.77;;
11986;SDS011;6053;51.382;6.768;2023-07-30T00:29:49;1.10;;;0.60;;
11986;SDS011;6053;51.382;6.768;2023-07-30T00:32:20;0.60;;;0.60;;
11986;SDS011;6053;51.382;6.768;2023-07-30T00:34:50;1.80;;;0.87;;
11986;SDS011;6053;51.382;6.768;2023-07-30T00:37:18;1.67;;;0.65;;
11986;SDS011;6053;51.382;6.768;2023-07-30T00:39:46;1.45;;;0.65;;
11986;SDS011;6053;51.382;6.768;2023-07-30T00:42:15;0.30;;;0.30;;
11986;SDS011;6053;51.382;6.768;2023-07-30T00:44:46;0.38;;;0.38;;
11986;SDS011;6053;51.382;6.768;2023-07-30T00:47:20;0.60;;;0.60;;
11986;SDS011;6053;51.382;6.768;2023-07-30T00:49:51;0.57;;;0.57;;
11986;SDS011;6053;51.382;6.768;2023-07-30T00:52:20;0.40;;;0.40;;
11986;SDS011;6053;51.382;6.768;2023-07-30T00:54:53;0.38;;;0.30;;
11986;SDS011;6053;51.382;6.768;2023-07-30T00:57:24;0.80;;;0.40;;
11986;SDS011;6053;51.382;6.768;2023-07-30T00:59:56;1.05;;;0.55;;
11986;SDS011;6053;51.382;6.768;2023-07-30T01:02:25;0.57;;;0.30;;
11986;SDS011;6053;51.382;6.768;2023-07-30T01:04:56;0.30;;;0.30;;
11986;SDS011;6053;51.382;6.768;2023-07-30T01:07:29;0.60;;;0.30;;
11986;SDS011;6053;51.382;6.768;2023-07-30T01:09:58;0.40;;;0.40;;
11986;SDS011;6053;51.382;6.768;2023-07-30T01:12:31;0.65;;;0.40;;
11986;SDS011;6053;51.382;6.768;2023-07-30T01:15:02;0.30;;;0.30;;
11986;SDS011;6053;51.382;6.768;2023-07-30T01:17:33;1.33;;;0.63;;
11986;SDS011;6053;51.382;6.768;2023-07-30T01:20:03;0.50;;;0.45;;
11986;SDS011;6053;51.382;6.768;2023-07-30T01:22:34;1.30;;;0.40;;
11986;SDS011;6053;51.382;6.768;2023-07-30T01:25:12;0.50;;;0.50;;
11986;SDS011;6053;51.382;6.768;2023-07-30T01:27:44;1.05;;;0.50;;
11986;SDS011;6053;51.382;6.768;2023-07-30T01:30:17;0.43;;;0.40;;
11986;SDS011;6053;51.382;6.768;2023-07-30T01:32:54;1.50;;;0.50;;
11986;SDS011;6053;51.382;6.768;2023-07-30T01:35:25;1.20;;;0.60;;
11986;SDS011;6053;51.382;6.768;2023-07-30T01:37:57;0.80;;;0.45;;
11986;SDS011;6053;51.382;6.768;2023-07-30T01:40:28;0.40;;;0.40;;
11986;SDS011;6053;51.382;6.768;2023-07-30T01:42:57;0.85;;;0.80;;
11986;SDS011;6053;51.382;6.768;2023-07-30T01:45:26;0.70;;;0.40;;
11986;SDS011;6053;51.382;6.768;2023-07-30T01:47:54;1.35;;;0.88;;
11986;SDS011;6053;51.382;6.768;2023-07-30T01:50:23;1.00;;;0.63;;
11986;SDS011;6053;51.382;6.768;2023-07-30T01:52:51;1.80;;;0.60;;
11986;SDS011;6053;51.382;6.768;2023-07-30T01:55:21;0.45;;;0.45;;
11986;SDS011;6053;51.382;6.768;2023-07-30T01:57:50;1.10;;;0.60;;
11986;SDS011;6053;51.382;6.768;2023-07-30T02:00:19;1.00;;;0.70;;
11986;SDS011;6053;51.382;6.768;2023-07-30T02:02:54;2.88;;;0.90;;
11986;SDS011;6053;51.382;6.768;2023-07-30T02:05:28;0.93;;;0.53;;
11986;SDS011;6053;51.382;6.768;2023-07-30T02:07:57;2.00;;;0.70;;
11986;SDS011;6053;51.382;6.768;2023-07-30T02:10:27;0.82;;;0.70;;
11986;SDS011;6053;51.382;6.768;2023-07-30T02:12:58;0.50;;;0.40;;
11986;SDS011;6053;51.382;6.768;2023-07-30T02:15:27;1.80;;;0.77;;
11986;SDS011;6053;51.382;6.768;2023-07-30T02:17:55;0.40;;;0.40;;
11986;SDS011;6053;51.382;6.768;2023-07-30T02:20:24;1.77;;;0.60;;
11986;SDS011;6053;51.382;6.768;2023-07-30T02:22:55;0.47;;;0.40;;
11986;SDS011;6053;51.382;6.768;2023-07-30T02:25:31;0.30;;;0.30;;
11986;SDS011;6053;51.382;6.768;2023-07-30T02:28:00;0.40;;;0.30;;
11986;SDS011;6053;51.382;6.768;2023-07-30T02:30:38;0.35;;;0.35;;
11986;SDS011;6053;51.382;6.768;2023-07-30T02:33:06;0.90;;;0.40;;
11986;SDS011;6053;51.382;6.768;2023-07-30T02:35:34;0.40;;;0.40;;
11986;SDS011;6053;51.382;6.768;2023-07-30T02:38:03;0.35;;;0.30;;
11986;SDS011;6053;51.382;6.768;2023-07-30T02:40:33;0.50;;;0.50;;
11986;SDS011;6053;51.382;6.768;2023-07-30T02:43:01;0.30;;;0.30;;
11986;SDS011;6053;51.382;6.768;2023-07-30T02:45:29;1.30;;;0.30;;
11986;SDS011;6053;51.382;6.768;2023-07-30T02:48:10;0.50;;;0.50;;
11986;SDS011;6053;51.382;6.768;2023-07-30T02:50:38;0.98;;;0.50;;
11986;SDS011;6053;51.382;6.768;2023-07-30T02:53:09;0.63;;;0.35;;
11986;SDS011;6053;51.382;6.768;2023-07-30T02:55:39;1.45;;;0.60;;
11986;SDS011;6053;51.382;6.768;2023-07-30T02:58:07;0.32;;;0.32;;
11986;SDS011;6053;51.382;6.768;2023-07-30T03:00:38;0.60;;;0.60;;
11986;SDS011;6053;51.382;6.768;2023-07-30T03:03:08;0.60;;;0.40;;
11986;SDS011;6053;51.382;6.768;2023-07-30T03:05:37;0.30;;;0.30;;
11986;SDS011;6053;51.382;6.768;2023-07-30T03:08:09;0.50;;;0.43;;
11986;SDS011;6053;51.382;6.768;2023-07-30T03:10:44;0.47;;;0.45;;
11986;SDS011;6053;51.382;6.768;2023-07-30T03:13:13;1.15;;;0.50;;
11986;SDS011;6053;51.382;6.768;2023-07-30T03:15:41;1.08;;;0.80;;
11986;SDS011;6053;51.382;6.768;2023-07-30T03:18:12;0.70;;;0.60;;
11986;SDS011;6053;51.382;6.768;2023-07-30T03:20:41;0.40;;;0.40;;
11986;SDS011;6053;51.382;6.768;2023-07-30T03:23:12;1.90;;;0.65;;
11986;SDS011;6053;51.382;6.768;2023-07-30T03:25:45;0.80;;;0.68;;
11986;SDS011;6053;51.382;6.768;2023-07-30T03:28:13;1.77;;;0.70;;
11986;SDS011;6053;51.382;6.768;2023-07-30T03:30:41;0.70;;;0.50;;
11986;SDS011;6053;51.382;6.768;2023-07-30T03:33:13;0.60;;;0.60;;
11986;SDS011;6053;51.382;6.768;2023-07-30T03:35:42;0.40;;;0.40;;
11986;SDS011;6053;51.382;6.768;2023-07-30T03:38:10;1.30;;;0.52;;
11986;SDS011;6053;51.382;6.768;2023-07-30T03:40:45;1.20;;;0.57;;
11986;SDS011;6053;51.382;6.768;2023-07-30T03:43:13;0.60;;;0.60;;
11986;SDS011;6053;51.382;6.768;2023-07-30T03:45:41;0.60;;;0.60;;
11986;SDS011;6053;51.382;6.768;2023-07-30T03:48:10;1.02;;;0.55;;
11986;SDS011;6053;51.382;6.768;2023-07-30T03:50:38;1.55;;;0.77;;
11986;SDS011;6053;51.382;6.768;2023-07-30T03:53:10;0.63;;;0.60;;
11986;SDS011;6053;51.382;6.768;2023-07-30T03:55:41;2.28;;;0.50;;
11986;SDS011;6053;51.382;6.768;2023-07-30T03:58:11;2.70;;;0.70;;
11986;SDS011;6053;51.382;6.768;2023-07-30T04:00:40;2.85;;;1.23;;
11986;SDS011;6053;51.382;6.768;2023-07-30T04:03:09;0.65;;;0.50;;
11986;SDS011;6053;51.382;6.768;2023-07-30T04:05:40;1.08;;;0.73;;
11986;SDS011;6053;51.382;6.768;2023-07-30T04:08:09;0.85;;;0.65;;
11986;SDS011;6053;51.382;6.768;2023-07-30T04:10:37;0.95;;;0.68;;
11986;SDS011;6053;51.382;6.768;2023-07-30T04:13:05;1.95;;;0.85;;
11986;SDS011;6053;51.382;6.768;2023-07-30T04:15:35;0.95;;;0.45;;
11986;SDS011;6053;51.382;6.768;2023-07-30T04:18:07;3.15;;;1.08;;
11986;SDS011;6053;51.382;6.768;2023-07-30T04:20:38;2.27;;;0.70;;
11986;SDS011;6053;51.382;6.768;2023-07-30T04:23:07;1.00;;;0.75;;
11986;SDS011;6053;51.382;6.768;2023-07-30T04:25:42;1.85;;;0.65;;
11986;SDS011;6053;51.382;6.768;2023-07-30T04:28:14;2.42;;;1.17;;
11986;SDS011;6053;51.382;6.768;2023-07-30T04:30:46;2.08;;;0.85;;
11986;SDS011;6053;51.382;6.768;2023-07-30T04:33:15;1.50;;;0.90;;
11986;SDS011;6053;51.382;6.768;2023-07-30T04:35:44;4.97;;;1.37;;
11986;SDS011;6053;51.382;6.768;2023-07-30T04:38:18;2.58;;;1.13;;
11986;SDS011;6053;51.382;6.768;2023-07-30T04:40:47;3.03;;;1.05;;
11986;SDS011;6053;51.382;6.768;2023-07-30T04:43:18;0.60;;;0.50;;
11986;SDS011;6053;51.382;6.768;2023-07-30T04:45:56;1.50;;;0.63;;
11986;SDS011;6053;51.382;6.768;2023-07-30T04:48:27;3.13;;;0.90;;
11986;SDS011;6053;51.382;6.768;2023-07-30T04:50:59;3.17;;;1.10;;
11986;SDS011;6053;51.382;6.768;2023-07-30T04:53:30;2.80;;;1.00;;
11986;SDS011;6053;51.382;6.768;2023-07-30T04:55:59;0.98;;;0.52;;
11986;SDS011;6053;51.382;6.768;2023-07-30T04:58:30;2.53;;;0.90;;
11986;SDS011;6053;51.382;6.768;2023-07-30T05:01:02;2.17;;;0.97;;
11986;SDS011;6053;51.382;6.768;2023-07-30T05:03:31;3.20;;;1.10;;
11986;SDS011;6053;51.382;6.768;2023-07-30T05:06:02;1.73;;;1.08;;
11986;SDS011;6053;51.382;6.768;2023-07-30T05:08:47;2.95;;;1.10;;
11986;SDS011;6053;51.382;6.768;2023-07-30T05:11:19;2.22;;;1.10;;
11986;SDS011;6053;51.382;6.768;2023-07-30T05:13:48;2.70;;;1.27;;
11986;SDS011;6053;51.382;6.768;2023-07-30T05:16:21;3.58;;;1.40;;
11986;SDS011;6053;51.382;6.768;2023-07-30T05:18:51;1.55;;;0.88;;
11986;SDS011;6053;51.382;6.768;2023-07-30T05:21:20;1.73;;;1.10;;
11986;SDS011;6053;51.382;6.768;2023-07-30T05:23:49;2.50;;;1.23;;
11986;SDS011;6053;51.382;6.768;2023-07-30T05:26:27;1.73;;;0.80;;
11986;SDS011;6053;51.382;6.768;2023-07-30T05:29:01;4.23;;;1.20;;
11986;SDS011;6053;51.382;6.768;2023-07-30T05:31:34;1.63;;;0.77;;
11986;SDS011;6053;51.382;6.768;2023-07-30T05:34:03;1.40;;;0.77;;
11986;SDS011;6053;51.382;6.768;2023-07-30T05:36:31;2.42;;;0.85;;
11986;SDS011;6053;51.382;6.768;2023-07-30T05:39:09;1.67;;;0.80;;
11986;SDS011;6053;51.382;6.768;2023-07-30T05:41:38;1.45;;;0.65;;
11986;SDS011;6053;51.382;6.768;2023-07-30T05:44:06;2.63;;;0.80;;
11986;SDS011;6053;51.382;6.768;2023-07-30T05:46:39;2.75;;;0.90;;
11986;SDS011;6053;51.382;6.768;2023-07-30T05:49:07;3.13;;;1.02;;
11986;SDS011;6053;51.382;6.768;2023-07-30T05:51:41;2.90;;;0.98;;
11986;SDS011;6053;51.382;6.768;2023-07-30T05:54:09;2.90;;;1.00;;
11986;SDS011;6053;51.382;6.768;2023-07-30T05:56:44;2.13;;;1.10;;
11986;SDS011;6053;51.382;6.768;2023-07-30T05:59:15;3.10;;;1.07;;
11986;SDS011;6053;51.382;6.768;2023-07-30T06:01:48;1.55;;;0.90;;
11986;SDS011;6053;51.382;6.768;2023-07-30T06:04:16;1.38;;;0.77;;
11986;SDS011;6053;51.382;6.768;2023-07-30T06:06:47;4.55;;;1.20;;
11986;SDS011;6053;51.382;6.768;2023-07-30T06:09:24;1.50;;;0.68;;
11986;SDS011;6053;51.382;6.768;2023-07-30T06:11:53;1.48;;;0.70;;
11986;SDS011;6053;51.382;6.768;2023-07-30T06:14:28;1.60;;;0.93;;
11986;SDS011;6053;51.382;6.768;2023-07-30T06:17:04;4.25;;;1.20;;
11986;SDS011;6053;51.382;6.768;2023-07-30T06:19:39;2.13;;;0.73;;
11986;SDS011;6053;51.382;6.768;2023-07-30T06:22:10;2.60;;;1.00;;
11986;SDS011;6053;51.382;6.768;2023-07-30T06:24:38;0.80;;;0.60;;
11986;SDS011;6053;51.382;6.768;2023-07-30T06:27:07;2.65;;;0.88;;
11986;SDS011;6053;51.382;6.768;2023-07-30T06:29:39;2.60;;;0.73;;
11986;SDS011;6053;51.382;6.768;2023-07-30T06:32:08;2.22;;;0.90;;
11986;SDS011;6053;51.382;6.768;2023-07-30T06:34:43;2.90;;;1.00;;
11986;SDS011;6053;51.382;6.768;2023-07-30T06:37:12;0.85;;;0.45;;
11986;SDS011;6053;51.382;6.768;2023-07-30T06:39:45;4.20;;;1.00;;
11986;SDS011;6053;51.382;6.768;2023-07-30T06:42:23;3.10;;;0.98;;
11986;SDS011;6053;51.382;6.768;2023-07-30T06:44:54;2.15;;;0.80;;
11986;SDS011;6053;51.382;6.768;2023-07-30T06:47:24;3.00;;;1.00;;
11986;SDS011;6053;51.382;6.768;2023-07-30T06:49:55;5.57;;;1.23;;
11986;SDS011;6053;51.382;6.768;2023-07-30T06:52:24;2.80;;;1.00;;
11986;SDS011;6053;51.382;6.768;2023-07-30T06:54:52;0.70;;;0.50;;
11986;SDS011;6053;51.382;6.768;2023-07-30T06:57:20;2.00;;;0.75;;
11986;SDS011;6053;51.382;6.768;2023-07-30T06:59:54;1.35;;;0.80;;
11986;SDS011;6053;51.382;6.768;2023-07-30T07:02:25;0.90;;;0.60;;
11986;SDS011;6053;51.382;6.768;2023-07-30T07:04:57;4.32;;;1.30;;
11986;SDS011;6053;51.382;6.768;2023-07-30T07:07:32;1.42;;;0.50;;
11986;SDS011;6053;51.382;6.768;2023-07-30T07:10:03;4.45;;;0.93;;
11986;SDS011;6053;51.382;6.768;2023-07-30T07:12:33;6.22;;;1.30;;
11986;SDS011;6053;51.382;6.768;2023-07-30T07:15:03;1.55;;;0.88;;
11986;SDS011;6053;51.382;6.768;2023-07-30T07:17:36;2.23;;;0.70;;
11986;SDS011;6053;51.382;6.768;2023-07-30T07:20:11;1.10;;;0.45;;
11986;SDS011;6053;51.382;6.768;2023-07-30T07:22:45;2.17;;;0.90;;
11986;SDS011;6053;51.382;6.768;2023-07-30T07:25:14;7.70;;;1.25;;
11986;SDS011;6053;51.382;6.768;2023-07-30T07:27:54;1.80;;;0.88;;
11986;SDS011;6053;51.382;6.768;2023-07-30T07:30:23;2.27;;;0.70;;
11986;SDS011;6053;51.382;6.768;2023-07-30T07:32:56;3.13;;;0.90;;
11986;SDS011;6053;51.382;6.768;2023-07-30T07:35:25;4.25;;;1.15;;
11986;SDS011;6053;51.382;6.768;2023-07-30T07:37:54;4.18;;;1.33;;
11986;SDS011;6053;51.382;6.768;2023-07-30T07:40:22;3.78;;;1.05;;
11986;SDS011;6053;51.382;6.768;2023-07-30T07:42:52;2.70;;;1.10;;
11986;SDS011;6053;51.382;6.768;2023-07-30T07:45:25;3.75;;;1.00;;
11986;SDS011;6053;51.382;6.768;2023-07-30T07:47:53;3.45;;;0.95;;
11986;SDS011;6053;51.382;6.768;2023-07-30T07:50:23;2.50;;;0.80;;
11986;SDS011;6053;51.382;6.768;2023-07-30T07:52:52;4.80;;;1.20;;
11986;SDS011;6053;51.382;6.768;2023-07-30T07:55:22;2.28;;;1.13;;
11986;SDS011;6053;51.382;6.768;2023-07-30T07:57:51;1.95;;;0.93;;
11986;SDS011;6053;51.382;6.768;2023-07-30T08:00:25;3.50;;;1.10;;
11986;SDS011;6053;51.382;6.768;2023-07-30T08:02:55;2.17;;;0.98;;
11986;SDS011;6053;51.382;6.768;2023-07-30T08:05:26;3.45;;;1.05;;
11986;SDS011;6053;51.382;6.768;2023-07-30T08:07:55;3.67;;;0.90;;
11986;SDS011;6053;51.382;6.768;2023-07-30T08:10:24;5.45;;;1.30;;
11986;SDS011;6053;51.382;6.768;2023-07-30T08:12:52;4.13;;;1.30;;
11986;SDS011;6053;51.382;6.768;2023-07-30T08:15:33;2.97;;;1.10;;
11986;SDS011;6053;51.382;6.768;2023-07-30T08:18:05;2.58;;;1.10;;
11986;SDS011;6053;51.382;6.768;2023-07-30T08:20:35;4.30;;;1.15;;
11986;SDS011;6053;51.382;6.768;2023-07-30T08:23:07;5.25;;;1.33;;
11986;SDS011;6053;51.382;6.768;2023-07-30T08:25:41;5.23;;;1.30;;
11986;SDS011;6053;51.382;6.768;2023-07-30T08:28:13;4.13;;;1.42;;
11986;SDS011;6053;51.382;6.768;2023-07-30T08:30:41;4.28;;;0.85;;
11986;SDS011;6053;51.382;6.768;2023-07-30T08:33:14;4.28;;;1.23;;
11986;SDS011;6053;51.382;6.768;2023-07-30T08:35:42;1.95;;;0.88;;
11986;SDS011;6053;51.382;6.768;2023-07-30T08:38:14;6.28;;;1.48;;
11986;SDS011;6053;51.382;6.768;2023-07-30T08:40:45;4.18;;;1.08;;
11986;SDS011;6053;51.382;6.768;2023-07-30T08:43:13;4.35;;;1.35;;
11986;SDS011;6053;51.382;6.768;2023-07-30T08:45:48;2.58;;;0.88;;
11986;SDS011;6053;51.382;6.768;2023-07-30T08:48:18;4.10;;;1.15;;
11986;SDS011;6053;51.382;6.768;2023-07-30T08:50:46;5.33;;;1.40;;
11986;SDS011;6053;51.382;6.768;2023-07-30T08:53:17;5.07;;;1.27;;
11986;SDS011;6053;51.382;6.768;2023-07-30T08:55:46;4.25;;;1.15;;
11986;SDS011;6053;51.382;6.768;2023-07-30T08:58:15;3.22;;;1.23;;
11986;SDS011;6053;51.382;6.768;2023-07-30T09:00:46;3.30;;;1.30;;
11986;SDS011;6053;51.382;6.768;2023-07-30T09:03:20;5.22;;;1.35;;
11986;SDS011;6053;51.382;6.768;2023-07-30T09:05:50;5.10;;;1.40;;
11986;SDS011;6053;51.382;6.768;2023-07-30T09:08:24;3.57;;;1.13;;
11986;SDS011;6053;51.382;6.768;2023-07-30T09:11:08;2.70;;;0.80;;
11986;SDS011;6053;51.382;6.768;2023-07-30T09:13:38;4.70;;;1.20;;
11986;SDS011;6053;51.382;6.768;2023-07-30T09:16:08;5.45;;;1.65;;
11986;SDS011;6053;51.382;6.768;2023-07-30T09:18:43;2.30;;;0.90;;
11986;SDS011;6053;51.382;6.768;2023-07-30T09:21:17;6.20;;;1.37;;
11986;SDS011;6053;51.382;6.768;2023-07-30T09:24:06;3.45;;;1.33;;
11986;SDS011;6053;51.382;6.768;2023-07-30T09:26:45;3.10;;;0.95;;
11986;SDS011;6053;51.382;6.768;2023-07-30T09:29:14;4.25;;;1.23;;
11986;SDS011;6053;51.382;6.768;2023-07-30T09:31:43;2.30;;;1.00;;
11986;SDS011;6053;51.382;6.768;2023-07-30T09:34:16;4.32;;;1.23;;
11986;SDS011;6053;51.382;6.768;2023-07-30T09:36:46;5.05;;;1.30;;
11986;SDS011;6053;51.382;6.768;2023-07-30T09:39:19;4.40;;;1.40;;
11986;SDS011;6053;51.382;6.768;2023-07-30T09:41:49;3.67;;;1.30;;
11986;SDS011;6053;51.382;6.768;2023-07-30T09:44:19;3.60;;;1.02;;
11986;SDS011;6053;51.382;6.768;2023-07-30T09:46:49;3.93;;;1.20;;
11986;SDS011;6053;51.382;6.768;2023-07-30T09:49:22;3.53;;;1.10;;
11986;SDS011;6053;51.382;6.768;2023-07-30T09:51:52;3.53;;;1.20;;
11986;SDS011;6053;51.382;6.768;2023-07-30T09:54:26;3.80;;;1.10;;
11986;SDS011;6053;51.382;6.768;2023-07-30T09:56:55;2.88;;;0.98;;
11986;SDS011;6053;51.382;6.768;2023-07-30T09:59:24;2.27;;;0.90;;
11986;SDS011;6053;51.382;6.768;2023-07-30T10:01:56;4.47;;;1.20;;
11986;SDS011;6053;51.382;6.768;2023-07-30T10:04:27;3.08;;;1.20;;
11986;SDS011;6053;51.382;6.768;2023-07-30T10:07:01;1.90;;;0.73;;
11986;SDS011;6053;51.382;6.768;2023-07-30T10:09:38;2.45;;;1.10;;
11986;SDS011;6053;51.382;6.768;2023-07-30T10:12:10;3.53;;;0.97;;
11986;SDS011;6053;51.382;6.768;2023-07-30T10:14:41;4.05;;;1.00;;
11986;SDS011;6053;51.382;6.768;2023-07-30T10:17:10;4.95;;;1.10;;
11986;SDS011;6053;51.382;6.768;2023-07-30T10:19:43;3.85;;;1.20;;
11986;SDS011;6053;51.382;6.768;2023-07-30T10:22:22;4.53;;;1.10;;
11986;SDS011;6053;51.382;6.768;2023-07-30T10:24:58;6.25;;;1.15;;
11986;SDS011;6053;51.382;6.768;2023-07-30T10:27:35;3.58;;;1.05;;
11986;SDS011;6053;51.382;6.768;2023-07-30T10:30:08;1.95;;;0.88;;
11986;SDS011;6053;51.382;6.768;2023-07-30T10:32:59;3.03;;;1.10;;
11986;SDS011;6053;51.382;6.768;2023-07-30T10:38:27;2.57;;;1.00;;
11986;SDS011;6053;51.382;6.768;2023-07-30T10:41:03;2.45;;;1.00;;
11986;SDS011;6053;51.382;6.768;2023-07-30T10:43:35;5.72;;;1.10;;
11986;SDS011;6053;51.382;6.768;2023-07-30T10:46:08;2.80;;;0.80;;
11986;SDS011;6053;51.382;6.768;2023-07-30T10:48:39;1.30;;;0.45;;
11986;SDS011;6053;51.382;6.768;2023-07-30T10:51:11;4.80;;;0.93;;
11986;SDS011;6053;51.382;6.768;2023-07-30T10:53:41;3.80;;;1.00;;
11986;SDS011;6053;51.382;6.768;2023-07-30T10:56:21;2.67;;;0.70;;
11986;SDS011;6053;51.382;6.768;2023-07-30T10:58:51;3.45;;;1.05;;
11986;SDS011;6053;51.382;6.768;2023-07-30T11:01:23;2.55;;;0.88;;
11986;SDS011;6053;51.382;6.768;2023-07-30T11:03:53;6.93;;;1.20;;
11986;SDS011;6053;51.382;6.768;2023-07-30T11:06:23;3.20;;;1.27;;
11986;SDS011;6053;51.382;6.768;2023-07-30T11:08:53;3.03;;;0.90;;
11986;SDS011;6053;51.382;6.768;2023-07-30T11:11:21;5.07;;;1.13;;
11986;SDS011;6053;51.382;6.768;2023-07-30T11:13:51;4.00;;;1.13;;
11986;SDS011;6053;51.382;6.768;2023-07-30T11:16:20;2.50;;;0.95;;
11986;SDS011;6053;51.382;6.768;2023-07-30T11:18:48;4.88;;;1.20;;
11986;SDS011;6053;51.382;6.768;2023-07-30T11:21:19;3.75;;;1.10;;
11986;SDS011;6053;51.382;6.768;2023-07-30T11:23:52;3.25;;;1.10;;
11986;SDS011;6053;51.382;6.768;2023-07-30T11:26:21;4.03;;;1.00;;
11986;SDS011;6053;51.382;6.768;2023-07-30T11:28:49;3.17;;;1.10;;
11986;SDS011;6053;51.382;6.768;2023-07-30T11:31:17;3.58;;;0.93;;
11986;SDS011;6053;51.382;6.768;2023-07-30T11:33:48;5.25;;;1.20;;
11986;SDS011;6053;51.382;6.768;2023-07-30T11:36:19;5.10;;;1.38;;
11986;SDS011;6053;51.382;6.768;2023-07-30T11:39:00;2.50;;;1.02;;
11986;SDS011;6053;51.382;6.768;2023-07-30T11:41:29;3.40;;;1.13;;
11986;SDS011;6053;51.382;6.768;2023-07-30T11:43:58;3.60;;;1.10;;
11986;SDS011;6053;51.382;6.768;2023-07-30T11:46:26;5.18;;;2.33;;
11986;SDS011;6053;51.382;6.768;2023-07-30T11:49:16;3.03;;;1.17;;
11986;SDS011;6053;51.382;6.768;2023-07-30T11:51:47;3.30;;;1.30;;
11986;SDS011;6053;51.382;6.768;2023-07-30T11:54:20;2.95;;;2.28;;
11986;SDS011;6053;51.382;6.768;2023-07-30T11:56:53;3.30;;;1.20;;
11986;SDS011;6053;51.382;6.768;2023-07-30T11:59:24;3.58;;;1.48;;
11986;SDS011;6053;51.382;6.768;2023-07-30T12:01:53;2.80;;;1.40;;
11986;SDS011;6053;51.382;6.768;2023-07-30T12:04:22;3.85;;;1.27;;
11986;SDS011;6053;51.382;6.768;2023-07-30T12:06:57;2.83;;;1.30;;
11986;SDS011;6053;51.382;6.768;2023-07-30T12:09:34;5.32;;;1.00;;
11986;SDS011;6053;51.382;6.768;2023-07-30T12:12:04;2.17;;;1.30;;
11986;SDS011;6053;51.382;6.768;2023-07-30T12:14:45;3.42;;;2.17;;
11986;SDS011;6053;51.382;6.768;2023-07-30T12:17:21;3.77;;;1.13;;
11986;SDS011;6053;51.382;6.768;2023-07-30T12:19:53;3.65;;;1.00;;
11986;SDS011;6053;51.382;6.768;2023-07-30T12:22:21;3.10;;;1.55;;
11986;SDS011;6053;51.382;6.768;2023-07-30T12:24:51;3.60;;;1.60;;
11986;SDS011;6053;51.382;6.768;2023-07-30T12:27:19;2.22;;;1.10;;
11986;SDS011;6053;51.382;6.768;2023-07-30T12:29:48;2.22;;;1.45;;
11986;SDS011;6053;51.382;6.768;2023-07-30T12:32:16;3.17;;;0.82;;
11986;SDS011;6053;51.382;6.768;2023-07-30T12:34:45;2.10;;;0.60;;
11986;SDS011;6053;51.382;6.768;2023-07-30T12:37:14;1.65;;;0.65;;
11986;SDS011;6053;51.382;6.768;2023-07-30T12:39:42;1.55;;;0.70;;
11986;SDS011;6053;51.382;6.768;2023-07-30T12:42:12;3.33;;;0.90;;
11986;SDS011;6053;51.382;6.768;2023-07-30T12:44:41;2.63;;;0.80;;
11986;SDS011;6053;51.382;6.768;2023-07-30T12:47:16;1.95;;;0.68;;
11986;SDS011;6053;51.382;6.768;2023-07-30T12:49:46;2.83;;;0.90;;
11986;SDS011;6053;51.382;6.768;2023-07-30T12:52:15;1.50;;;0.70;;
11986;SDS011;6053;51.382;6.768;2023-07-30T12:54:43;1.85;;;0.80;;
11986;SDS011;6053;51.382;6.768;2023-07-30T12:57:17;1.92;;;0.80;;
11986;SDS011;6053;51.382;6.768;2023-07-30T12:59:46;1.80;;;0.73;;
11986;SDS011;6053;51.382;6.768;2023-07-30T13:02:14;2.40;;;0.85;;
11986;SDS011;6053;51.382;6.768;2023-07-30T13:04:43;1.40;;;0.70;;
11986;SDS011;6053;51.382;6.768;2023-07-30T13:07:14;2.60;;;0.80;;
11986;SDS011;6053;51.382;6.768;2023-07-30T13:09:45;2.63;;;0.80;;
11986;SDS011;6053;51.382;6.768;2023-07-30T13:12:14;2.65;;;0.73;;
11986;SDS011;6053;51.382;6.768;2023-07-30T13:14:44;2.63;;;0.80;;
11986;SDS011;6053;51.382;6.768;2023-07-30T13:17:12;2.90;;;0.80;;
11986;SDS011;6053;51.382;6.768;2023-07-30T13:19:41;1.80;;;0.77;;
11986;SDS011;6053;51.382;6.768;2023-07-30T13:22:10;1.70;;;0.90;;
11986;SDS011;6053;51.382;6.768;2023-07-30T13:24:38;2.28;;;0.80;;
11986;SDS011;6053;51.382;6.768;2023-07-30T13:27:13;2.15;;;0.80;;
11986;SDS011;6053;51.382;6.768;2023-07-30T13:29:43;2.00;;;0.85;;
11986;SDS011;6053;51.382;6.768;2023-07-30T13:32:13;2.33;;;0.83;;
11986;SDS011;6053;51.382;6.768;2023-07-30T13:34:41;1.90;;;0.70;;
11986;SDS011;6053;51.382;6.768;2023-07-30T13:37:13;2.65;;;0.90;;
11986;SDS011;6053;51.382;6.768;2023-07-30T13:39:42;2.92;;;0.82;;
11986;SDS011;6053;51.382;6.768;2023-07-30T13:42:12;2.10;;;0.98;;
11986;SDS011;6053;51.382;6.768;2023-07-30T13:44:42;2.25;;;0.90;;
11986;SDS011;6053;51.382;6.768;2023-07-30T13:47:14;1.42;;;0.68;;
11986;SDS011;6053;51.382;6.768;2023-07-30T13:49:43;3.33;;;1.20;;
11986;SDS011;6053;51.382;6.768;2023-07-30T13:52:14;1.95;;;0.80;;
11986;SDS011;6053;51.382;6.768;2023-07-30T13:54:42;2.57;;;0.80;;
11986;SDS011;6053;51.382;6.768;2023-07-30T13:57:11;3.00;;;0.93;;
11986;SDS011;6053;51.382;6.768;2023-07-30T13:59:49;3.60;;;1.08;;
11986;SDS011;6053;51.382;6.768;2023-07-30T14:02:18;2.25;;;1.00;;
11986;SDS011;6053;51.382;6.768;2023-07-30T14:04:48;2.95;;;1.00;;
11986;SDS011;6053;51.382;6.768;2023-07-30T14:07:16;3.35;;;1.00;;
11986;SDS011;6053;51.382;6.768;2023-07-30T14:09:45;2.75;;;1.08;;
11986;SDS011;6053;51.382;6.768;2023-07-30T14:12:14;2.30;;;0.83;;
11986;SDS011;6053;51.382;6.768;2023-07-30T14:14:42;2.80;;;0.90;;
11986;SDS011;6053;51.382;6.768;2023-07-30T14:17:12;1.70;;;0.70;;
11986;SDS011;6053;51.382;6.768;2023-07-30T14:19:42;2.45;;;0.85;;
11986;SDS011;6053;51.382;6.768;2023-07-30T14:22:11;2.63;;;1.00;;
11986;SDS011;6053;51.382;6.768;2023-07-30T14:24:39;1.90;;;0.70;;
11986;SDS011;6053;51.382;6.768;2023-07-30T14:27:10;4.05;;;1.40;;
11986;SDS011;6053;51.382;6.768;2023-07-30T14:29:48;3.83;;;2.38;;
11986;SDS011;6053;51.382;6.768;2023-07-30T14:32:18;3.70;;;2.03;;
11986;SDS011;6053;51.382;6.768;2023-07-30T14:34:51;5.57;;;2.35;;
11986;SDS011;6053;51.382;6.768;2023-07-30T14:37:19;2.65;;;1.10;;
11986;SDS011;6053;51.382;6.768;2023-07-30T14:39:48;2.00;;;1.10;;
11986;SDS011;6053;51.382;6.768;2023-07-30T14:42:18;2.35;;;1.30;;
11986;SDS011;6053;51.382;6.768;2023-07-30T14:44:47;5.05;;;1.40;;
11986;SDS011;6053;51.382;6.768;2023-07-30T14:47:21;2.30;;;1.10;;
11986;SDS011;6053;51.382;6.768;2023-07-30T14:49:51;4.23;;;1.00;;
11986;SDS011;6053;51.382;6.768;2023-07-30T14:52:23;4.70;;;1.17;;
11986;SDS011;6053;51.382;6.768;2023-07-30T14:54:53;2.00;;;0.90;;
11986;SDS011;6053;51.382;6.768;2023-07-30T14:57:24;3.05;;;0.90;;
11986;SDS011;6053;51.382;6.768;2023-07-30T14:59:53;2.13;;;0.80;;
11986;SDS011;6053;51.382;6.768;2023-07-30T15:02:23;1.80;;;0.80;;
11986;SDS011;6053;51.382;6.768;2023-07-30T15:04:53;4.32;;;1.00;;
11986;SDS011;6053;51.382;6.768;2023-07-30T15:07:26;2.13;;;0.90;;
11986;SDS011;6053;51.382;6.768;2023-07-30T15:09:57;2.43;;;0.87;;
11986;SDS011;6053;51.382;6.768;2023-07-30T15:12:40;2.65;;;0.98;;
11986;SDS011;6053;51.382;6.768;2023-07-30T15:15:12;2.30;;;0.90;;
11986;SDS011;6053;51.382;6.768;2023-07-30T15:17:43;4.40;;;0.82;;
11986;SDS011;6053;51.382;6.768;2023-07-30T15:20:12;2.10;;;0.90;;
11986;SDS011;6053;51.382;6.768;2023-07-30T15:22:41;2.78;;;0.90;;
11986;SDS011;6053;51.382;6.768;2023-07-30T15:25:10;4.40;;;0.93;;
11986;SDS011;6053;51.382;6.768;2023-07-30T15:27:39;3.03;;;1.00;;